Terminal Aerodrome Forecast
Issued by NWS Wilmington, NC

Home | Current Version | Previous Version | Text Only | Print | Product List | Glossary On
Versions: 1 2 3 4 5 6 7 8 9 10 11 12 13 14 15 16 17 18 19
667
FTUS42 KILM 301755 CCB
TAFFLO
TAF COR
KFLO 301755Z 3018/3118 24010G15KT P6SM VCTS FEW030CB BKN060
     FM310000 21006KT P6SM SCT045 BKN150
     FM310800 22005KT P6SM SCT035 BKN250
     FM311400 23010KT P6SM VCTS FEW025CB BKN050=

USA.gov is the U.S. government's official web portal to all federal, state and local government web resources and services.